Floyd, Texas
Current Conditions -  °F | °C
As of 4:55 PM on Monday 24 Nov 2014 (Local Time) from KGVT Reporting Station
Clear Clear  
Wind Chill: 55°   Ceiling: Unl
Heat Index: 55°   Visibility: 10mi
Dew Point: 25°   Wind: 3mph
Humidity: 31%   Direction: 230°SW
Pressure: 30.04"   Gusts: NA
Location:  33.1242°N, 96.0996°W
Report Text: KGVT 242255Z AUTO 23003KT 10SM CLR 13/M04 A3004 RMK AO2
Loading
Personal Weather Stations






























Interactive Weather Map New forecast layout! Learn more

10-Day Weather Forecast

Advertisements
Track Severe Weather on mobile